createdAt,value
2018-06-21T00:01:07.842Z,1.10
2018-06-21T00:03:36.216Z,0.80
2018-06-21T00:06:04.571Z,1.00
2018-06-21T00:08:32.983Z,1.00
2018-06-21T00:11:01.365Z,1.17
2018-06-21T00:13:29.865Z,1.10
2018-06-21T00:15:58.243Z,1.00
2018-06-21T00:18:26.685Z,1.13
2018-06-21T00:20:55.012Z,1.40
2018-06-21T00:23:23.415Z,1.53
2018-06-21T00:25:51.462Z,1.30
2018-06-21T00:28:19.751Z,1.33
2018-06-21T00:30:48.056Z,0.90
2018-06-21T00:33:16.346Z,1.20
2018-06-21T00:35:44.787Z,0.97
2018-06-21T00:38:13.195Z,1.17
2018-06-21T00:40:41.496Z,1.07
2018-06-21T00:43:09.759Z,1.33
2018-06-21T00:45:38.230Z,1.13
2018-06-21T00:48:06.570Z,1.10
2018-06-21T00:50:34.883Z,1.20
2018-06-21T00:53:03.185Z,1.20
2018-06-21T00:55:43.007Z,1.00
2018-06-21T00:58:11.333Z,1.20
2018-06-21T01:00:40.465Z,1.20
2018-06-21T01:03:08.497Z,1.03
2018-06-21T01:05:36.795Z,1.10
2018-06-21T01:08:05.175Z,1.03
2018-06-21T01:10:33.622Z,1.17
2018-06-21T01:13:01.906Z,1.10
2018-06-21T01:15:30.348Z,1.10
2018-06-21T01:17:58.708Z,1.20
2018-06-21T01:20:27.067Z,1.10
2018-06-21T01:22:55.408Z,1.30
2018-06-21T01:25:23.713Z,1.17
2018-06-21T01:27:51.970Z,1.20
2018-06-21T01:30:20.368Z,1.10
2018-06-21T01:32:48.655Z,1.00
2018-06-21T01:35:17.792Z,0.93
2018-06-21T01:37:46.287Z,1.20
2018-06-21T01:40:14.599Z,1.20
2018-06-21T01:42:42.976Z,1.00
2018-06-21T01:45:11.301Z,1.00
2018-06-21T01:47:39.632Z,1.00
2018-06-21T01:50:14.348Z,1.10
2018-06-21T01:52:42.659Z,1.30
2018-06-21T01:55:11.051Z,1.00
2018-06-21T01:57:39.342Z,1.30
2018-06-21T02:00:07.669Z,1.10
2018-06-21T02:02:35.994Z,0.93
2018-06-21T02:06:07.604Z,1.10
2018-06-21T02:08:35.916Z,0.87
2018-06-21T02:11:04.298Z,1.00
2018-06-21T02:13:32.634Z,1.00
2018-06-21T02:16:00.972Z,0.87
2018-06-21T02:18:29.669Z,1.20
2018-06-21T02:20:58.072Z,1.10
2018-06-21T02:23:26.452Z,1.03
2018-06-21T02:25:55.614Z,1.30
2018-06-21T02:28:24.016Z,0.87
2018-06-21T02:30:52.352Z,1.00
2018-06-21T02:33:20.660Z,1.00
2018-06-21T02:35:49.085Z,1.03
2018-06-21T02:38:17.491Z,1.30
2018-06-21T02:40:45.941Z,0.97
2018-06-21T02:43:14.286Z,1.20
2018-06-21T02:45:42.665Z,1.00
2018-06-21T02:48:11.036Z,1.00
2018-06-21T02:50:39.351Z,1.27
2018-06-21T02:53:07.686Z,0.90
2018-06-21T02:55:36.009Z,1.07
2018-06-21T02:58:04.317Z,1.00
2018-06-21T03:00:32.776Z,1.07
2018-06-21T03:03:01.201Z,1.30
2018-06-21T03:05:29.523Z,1.13
2018-06-21T03:07:57.865Z,1.37
2018-06-21T03:10:26.279Z,1.10
2018-06-21T03:12:54.655Z,1.10
2018-06-21T03:15:23.037Z,1.13
2018-06-21T03:17:51.339Z,1.00
2018-06-21T03:20:19.660Z,1.17
2018-06-21T03:22:48.132Z,1.03
2018-06-21T03:25:16.433Z,1.27
2018-06-21T03:27:44.735Z,1.53
2018-06-21T03:30:13.022Z,1.40
2018-06-21T03:32:41.413Z,1.47
2018-06-21T03:35:09.752Z,1.20
2018-06-21T03:37:38.095Z,1.17
2018-06-21T03:40:06.377Z,1.13
2018-06-21T03:42:34.715Z,1.10
2018-06-21T03:45:03.003Z,1.30
2018-06-21T03:47:31.367Z,1.00
2018-06-21T03:49:59.689Z,1.33
2018-06-21T03:52:28.069Z,1.20
2018-06-21T03:54:56.378Z,1.10
2018-06-21T03:57:24.830Z,1.30
2018-06-21T03:59:53.107Z,1.00
2018-06-21T04:02:21.452Z,1.03
2018-06-21T04:04:49.731Z,1.00
2018-06-21T04:07:18.360Z,1.30
2018-06-21T04:09:46.703Z,1.23
2018-06-21T04:12:15.049Z,1.17
2018-06-21T04:14:43.343Z,1.10
2018-06-21T04:17:11.719Z,1.57
2018-06-21T04:19:40.290Z,1.23
2018-06-21T04:22:08.622Z,1.30
2018-06-21T04:24:37.412Z,1.40
2018-06-21T04:27:05.828Z,0.90
2018-06-21T04:29:34.121Z,1.00
2018-06-21T04:32:02.426Z,1.10
2018-06-21T04:34:31.244Z,1.10
2018-06-21T04:36:59.668Z,0.93
2018-06-21T04:39:27.963Z,2.07
2018-06-21T04:41:56.860Z,1.27
2018-06-21T04:44:25.190Z,1.00
2018-06-21T04:46:53.691Z,1.30
2018-06-21T04:49:23.034Z,1.50
2018-06-21T04:51:51.388Z,1.23
2018-06-21T04:54:19.786Z,1.10
2018-06-21T04:56:48.224Z,1.30
2018-06-21T04:59:16.517Z,1.30
2018-06-21T05:01:45.015Z,1.20
2018-06-21T05:04:13.351Z,1.10
2018-06-21T05:06:41.691Z,1.30
2018-06-21T05:09:11.646Z,1.20
2018-06-21T05:11:39.943Z,1.20
2018-06-21T05:14:08.824Z,1.23
2018-06-21T05:16:37.123Z,1.20
2018-06-21T05:19:05.435Z,1.30
2018-06-21T05:21:34.068Z,1.30
2018-06-21T05:24:02.428Z,1.10
2018-06-21T05:26:31.026Z,1.00
2018-06-21T05:28:59.939Z,1.37
2018-06-21T05:31:28.568Z,1.20
2018-06-21T05:33:57.094Z,1.37
2018-06-21T05:36:25.420Z,1.27
2018-06-21T05:38:53.872Z,1.20
2018-06-21T05:41:22.205Z,1.10
2018-06-21T05:43:50.818Z,0.90
2018-06-21T05:46:19.183Z,1.17
2018-06-21T05:48:47.560Z,1.50
2018-06-21T05:51:15.937Z,1.13
2018-06-21T05:53:44.261Z,1.23
2018-06-21T05:56:12.680Z,1.17
2018-06-21T05:58:41.029Z,1.03
2018-06-21T06:01:09.335Z,1.13
2018-06-21T06:03:37.708Z,1.50
2018-06-21T06:06:06.061Z,1.17
2018-06-21T06:08:34.545Z,1.50
2018-06-21T06:11:05.480Z,1.30
2018-06-21T06:13:34.031Z,1.30
2018-06-21T06:16:02.365Z,1.17
2018-06-21T06:18:30.748Z,1.30
2018-06-21T06:20:59.097Z,1.10
2018-06-21T06:23:27.667Z,1.40
2018-06-21T06:25:56.303Z,1.40
2018-06-21T06:28:24.819Z,1.70
2018-06-21T06:30:53.256Z,1.30
2018-06-21T06:33:21.680Z,1.30
2018-06-21T06:35:50.311Z,1.47
2018-06-21T06:38:18.836Z,1.70
2018-06-21T06:40:47.123Z,1.30
2018-06-21T06:43:15.420Z,1.47
2018-06-21T06:45:43.819Z,1.27
2018-06-21T06:48:12.579Z,1.33
2018-06-21T06:50:41.014Z,1.03
2018-06-21T06:53:09.356Z,1.80
2018-06-21T06:55:38.063Z,1.50
2018-06-21T06:58:06.960Z,1.60
2018-06-21T07:00:35.431Z,1.50
2018-06-21T07:03:03.842Z,1.77
2018-06-21T07:05:32.183Z,1.70
2018-06-21T07:08:00.554Z,1.60
2018-06-21T07:10:28.919Z,1.50
2018-06-21T07:12:57.535Z,1.40
2018-06-21T07:15:25.869Z,1.70
2018-06-21T07:17:54.225Z,1.93
2018-06-21T07:20:22.603Z,1.90
2018-06-21T07:22:51.132Z,1.63
2018-06-21T07:25:19.498Z,1.40
2018-06-21T07:27:47.855Z,1.50
2018-06-21T07:30:16.376Z,1.80
2018-06-21T07:32:44.682Z,1.33
2018-06-21T07:35:13.148Z,1.80
2018-06-21T07:37:41.444Z,1.63
2018-06-21T07:40:09.740Z,1.50
2018-06-21T07:42:38.021Z,1.90
2018-06-21T07:45:13.194Z,1.23
2018-06-21T07:47:41.805Z,1.53
2018-06-21T07:50:10.113Z,1.63
2018-06-21T07:52:38.423Z,1.57
2018-06-21T07:55:06.727Z,1.70
2018-06-21T07:57:37.959Z,1.70
2018-06-21T08:00:06.254Z,1.70
2018-06-21T08:02:34.571Z,1.73
2018-06-21T08:05:02.970Z,1.50
2018-06-21T08:07:31.348Z,1.13
2018-06-21T08:09:59.733Z,1.50
2018-06-21T08:12:28.191Z,1.00
2018-06-21T08:14:56.497Z,1.17
2018-06-21T08:17:24.859Z,1.30
2018-06-21T08:19:53.518Z,1.30
2018-06-21T08:22:21.817Z,1.27
2018-06-21T08:24:50.112Z,1.43
2018-06-21T08:27:18.517Z,1.40
2018-06-21T08:29:46.935Z,1.37
2018-06-21T08:32:15.320Z,1.40
2018-06-21T08:34:43.634Z,1.33
2018-06-21T08:37:11.965Z,1.60
2018-06-21T08:39:40.373Z,1.40
2018-06-21T08:42:08.748Z,1.50
2018-06-21T08:44:37.064Z,1.30
2018-06-21T08:47:05.428Z,1.60
2018-06-21T08:49:33.743Z,1.80
2018-06-21T08:52:02.110Z,1.37
2018-06-21T08:54:30.708Z,1.40
2018-06-21T08:56:59.083Z,1.10
2018-06-21T08:59:27.567Z,0.80
2018-06-21T09:01:56.095Z,0.93
2018-06-21T09:04:24.412Z,0.90
2018-06-21T09:06:52.757Z,0.90
2018-06-21T09:09:21.131Z,0.90
2018-06-21T09:11:49.477Z,0.70
2018-06-21T09:14:17.751Z,0.70
2018-06-21T09:16:46.197Z,0.73
2018-06-21T09:19:14.319Z,0.70
2018-06-21T09:21:42.664Z,0.80
2018-06-21T09:24:10.956Z,0.70
2018-06-21T09:26:39.284Z,0.60
2018-06-21T09:29:07.297Z,0.60
2018-06-21T09:31:35.723Z,0.70
2018-06-21T09:34:04.051Z,0.50
2018-06-21T09:36:36.671Z,0.70
2018-06-21T09:39:13.540Z,0.40
2018-06-21T09:41:47.463Z,0.50
2018-06-21T09:44:21.036Z,0.40
2018-06-21T09:46:54.882Z,0.40
2018-06-21T09:49:27.230Z,0.50
2018-06-21T09:51:55.791Z,0.45
2018-06-21T09:54:24.059Z,0.53
2018-06-21T09:56:52.381Z,0.40
2018-06-21T09:59:20.812Z,0.35
2018-06-21T10:01:49.152Z,0.35
2018-06-21T10:04:17.458Z,0.42
2018-06-21T10:06:45.873Z,1.10
2018-06-21T10:09:14.312Z,0.80
2018-06-21T10:11:42.741Z,0.78
2018-06-21T10:14:11.043Z,0.95
2018-06-21T10:16:39.348Z,0.60
2018-06-21T10:19:07.649Z,0.57
2018-06-21T10:21:36.056Z,0.55
2018-06-21T10:24:04.439Z,0.60
2018-06-21T10:26:33.375Z,0.50
2018-06-21T10:29:02.140Z,0.68
2018-06-21T10:31:30.547Z,0.47
2018-06-21T10:33:58.996Z,0.53
2018-06-21T10:36:27.474Z,0.83
2018-06-21T10:38:55.942Z,0.73
2018-06-21T10:41:24.691Z,0.60
2018-06-21T10:43:53.044Z,0.70
2018-06-21T10:46:21.458Z,0.77
2018-06-21T10:48:49.905Z,0.87
2018-06-21T10:51:18.289Z,1.43
2018-06-21T10:53:46.713Z,1.03
2018-06-21T10:56:15.040Z,0.90
2018-06-21T10:58:43.345Z,0.73
2018-06-21T11:01:11.697Z,0.80
2018-06-21T11:03:40.051Z,0.83
2018-06-21T11:06:08.442Z,0.67
2018-06-21T11:08:36.826Z,0.60
2018-06-21T11:11:05.168Z,0.87
2018-06-21T11:13:33.552Z,0.77
2018-06-21T11:16:02.190Z,0.90
2018-06-21T11:18:30.582Z,0.67
2018-06-21T11:20:58.952Z,0.87
2018-06-21T11:23:27.350Z,1.10
2018-06-21T11:25:56.168Z,1.00
2018-06-21T11:28:24.556Z,0.90
2018-06-21T11:30:52.875Z,1.00
2018-06-21T11:33:21.196Z,0.80
2018-06-21T11:35:49.452Z,0.90
2018-06-21T11:38:17.852Z,0.90
2018-06-21T11:40:46.132Z,0.93
2018-06-21T11:43:14.499Z,0.80
2018-06-21T11:45:42.811Z,1.07
2018-06-21T11:48:11.196Z,0.90
2018-06-21T11:50:39.646Z,1.10
2018-06-21T11:53:08.020Z,1.13
2018-06-21T11:55:36.019Z,1.10
2018-06-21T11:58:04.520Z,1.20
2018-06-21T12:00:33.036Z,1.13
2018-06-21T12:03:01.365Z,1.10
2018-06-21T12:05:29.687Z,1.00
2018-06-21T12:07:58.171Z,0.80
2018-06-21T12:10:26.451Z,0.83
2018-06-21T12:12:54.823Z,0.85
2018-06-21T12:15:23.206Z,0.80
2018-06-21T12:17:51.590Z,0.95
2018-06-21T12:20:19.924Z,1.10
2018-06-21T12:22:48.207Z,1.00
2018-06-21T12:25:16.492Z,1.30
2018-06-21T12:27:44.819Z,1.30
2018-06-21T12:30:13.099Z,1.37
2018-06-21T12:32:41.384Z,1.30
2018-06-21T12:35:09.753Z,1.20
2018-06-21T12:37:38.043Z,1.20
2018-06-21T12:40:06.372Z,1.00
2018-06-21T12:42:34.677Z,1.10
2018-06-21T12:45:03.037Z,0.80
2018-06-21T12:47:31.381Z,1.17
2018-06-21T12:49:59.932Z,0.82
2018-06-21T12:52:28.251Z,0.72
2018-06-21T12:54:56.604Z,0.72
2018-06-21T12:57:25.017Z,0.80
2018-06-21T12:59:53.355Z,1.10
2018-06-21T13:02:21.727Z,0.90
2018-06-21T13:04:50.055Z,0.75
2018-06-21T13:07:18.402Z,0.80
2018-06-21T13:09:58.281Z,0.80
2018-06-21T13:12:38.956Z,0.72
2018-06-21T13:15:07.374Z,0.70
2018-06-21T13:17:35.749Z,0.40
2018-06-21T13:20:05.155Z,0.62
2018-06-21T13:22:33.487Z,0.50
2018-06-21T13:25:02.041Z,0.60
2018-06-21T13:27:30.537Z,0.70
2018-06-21T13:29:59.353Z,0.85
2018-06-21T13:32:27.864Z,0.45
2018-06-21T13:34:56.213Z,0.60
2018-06-21T13:37:24.572Z,0.80
2018-06-21T13:39:52.936Z,0.50
2018-06-21T13:42:21.307Z,0.40
2018-06-21T13:44:49.755Z,0.53
2018-06-21T13:47:18.161Z,0.30
2018-06-21T13:49:46.556Z,0.40
2018-06-21T13:52:15.076Z,0.40
2018-06-21T13:54:43.497Z,0.50
2018-06-21T13:57:11.882Z,0.45
2018-06-21T13:59:40.227Z,0.55
2018-06-21T14:02:08.588Z,0.40
2018-06-21T14:04:37.025Z,0.33
2018-06-21T14:07:05.656Z,0.30
2018-06-21T14:09:34.016Z,0.60
2018-06-21T14:12:02.501Z,0.47
2018-06-21T14:14:30.852Z,0.60
2018-06-21T14:16:59.239Z,0.30
2018-06-21T14:19:27.663Z,0.40
2018-06-21T14:21:56.056Z,0.50
2018-06-21T14:24:24.483Z,0.50
2018-06-21T14:26:52.797Z,0.40
2018-06-21T14:29:21.172Z,0.55
2018-06-21T14:31:49.564Z,0.53
2018-06-21T14:34:17.887Z,0.50
2018-06-21T14:36:46.268Z,0.30
2018-06-21T14:39:14.646Z,0.50
2018-06-21T14:41:42.975Z,0.20
2018-06-21T14:44:11.492Z,0.23
2018-06-21T14:46:39.778Z,0.33
2018-06-21T14:49:08.093Z,0.50
2018-06-21T14:51:36.402Z,0.30
2018-06-21T14:54:04.946Z,0.40
2018-06-21T14:56:33.324Z,0.47
2018-06-21T14:59:02.011Z,0.33
2018-06-21T15:01:30.386Z,0.30
2018-06-21T15:03:58.774Z,0.30
2018-06-21T15:06:27.160Z,0.30
2018-06-21T15:08:56.320Z,0.28
2018-06-21T15:11:24.718Z,0.53
2018-06-21T15:13:52.988Z,0.40
2018-06-21T15:16:22.580Z,0.35
2018-06-21T15:18:50.924Z,0.50
2018-06-21T15:21:19.380Z,0.57
2018-06-21T15:23:47.959Z,0.25
2018-06-21T15:26:16.444Z,0.60
2018-06-21T15:28:44.838Z,0.37
2018-06-21T15:31:13.203Z,0.45
2018-06-21T15:33:41.520Z,0.55
2018-06-21T15:36:09.892Z,0.42
2018-06-21T15:38:38.208Z,0.60
2018-06-21T15:41:06.561Z,0.40
2018-06-21T15:43:34.964Z,0.28
2018-06-21T15:46:03.648Z,0.60
2018-06-21T15:48:32.127Z,0.23
2018-06-21T15:51:00.647Z,0.30
2018-06-21T15:53:30.171Z,0.33
2018-06-21T15:55:58.699Z,0.50
2018-06-21T15:58:27.412Z,0.50
2018-06-21T16:00:55.900Z,0.40
2018-06-21T16:03:24.436Z,0.50
2018-06-21T16:05:52.964Z,0.50
2018-06-21T16:08:21.431Z,0.60
2018-06-21T16:10:49.755Z,0.80
2018-06-21T16:13:18.337Z,0.57
2018-06-21T16:15:48.384Z,0.47
2018-06-21T16:18:16.772Z,0.63
2018-06-21T16:20:45.159Z,0.53
2018-06-21T16:23:13.804Z,0.60
2018-06-21T16:25:42.224Z,0.47
2018-06-21T16:28:10.670Z,0.57
2018-06-21T16:30:39.167Z,0.53
2018-06-21T16:33:07.884Z,0.50
2018-06-21T16:35:36.661Z,0.30
2018-06-21T16:38:05.310Z,0.47
2018-06-21T16:40:33.796Z,0.23
2018-06-21T16:43:02.389Z,0.30
2018-06-21T16:45:30.917Z,0.60
2018-06-21T16:47:59.543Z,0.40
2018-06-21T16:50:27.922Z,0.47
2018-06-21T16:52:56.336Z,0.53
2018-06-21T16:55:24.651Z,0.60
2018-06-21T16:57:53.027Z,0.60
2018-06-21T17:00:21.318Z,0.33
2018-06-21T17:02:49.628Z,0.30
2018-06-21T17:05:18.025Z,0.50
2018-06-21T17:07:46.303Z,0.27
2018-06-21T17:10:14.978Z,0.50
2018-06-21T17:12:43.431Z,0.50
2018-06-21T17:15:11.747Z,0.50
2018-06-21T17:17:40.108Z,0.30
2018-06-21T17:20:10.472Z,0.33
2018-06-21T17:22:39.032Z,0.40
2018-06-21T17:25:07.347Z,0.67
2018-06-21T17:27:35.760Z,0.30
2018-06-21T17:30:04.265Z,0.40
2018-06-21T17:32:32.615Z,0.40
2018-06-21T17:35:01.056Z,0.30
2018-06-21T17:37:29.533Z,0.40
2018-06-21T17:39:58.024Z,0.20
2018-06-21T17:42:26.395Z,0.50
2018-06-21T17:44:54.850Z,0.50
2018-06-21T17:47:23.267Z,0.60
2018-06-21T17:49:51.597Z,0.60
2018-06-21T17:52:19.906Z,0.60
2018-06-21T17:54:48.210Z,0.50
2018-06-21T17:57:16.596Z,0.73
2018-06-21T17:59:44.945Z,0.87
2018-06-21T18:02:13.114Z,0.50
2018-06-21T18:04:41.497Z,0.30
2018-06-21T18:07:09.925Z,0.50
2018-06-21T18:09:38.655Z,0.50
2018-06-21T18:12:07.278Z,0.40
2018-06-21T18:14:35.677Z,0.40
2018-06-21T18:17:04.120Z,0.50
2018-06-21T18:19:32.573Z,0.50
2018-06-21T18:22:00.947Z,0.40
2018-06-21T18:24:29.425Z,0.50
2018-06-21T18:26:57.842Z,0.30
2018-06-21T18:29:26.156Z,0.57
2018-06-21T18:31:54.649Z,0.53
2018-06-21T18:34:22.931Z,0.37
2018-06-21T18:36:51.271Z,0.40
2018-06-21T18:39:19.588Z,0.40
2018-06-21T18:41:47.896Z,0.50
2018-06-21T18:44:16.257Z,0.40
2018-06-21T18:46:44.762Z,0.40
2018-06-21T18:49:13.347Z,0.60
2018-06-21T18:51:41.894Z,0.47
2018-06-21T18:54:10.297Z,0.40
2018-06-21T18:56:38.351Z,0.50
2018-06-21T18:59:06.959Z,1.10
2018-06-21T19:01:35.647Z,0.60
2018-06-21T19:04:04.323Z,0.53
2018-06-21T19:06:38.064Z,0.43
2018-06-21T19:09:12.795Z,0.90
2018-06-21T19:11:47.015Z,1.37
2018-06-21T19:14:21.749Z,1.20
2018-06-21T19:16:50.155Z,0.97
2018-06-21T19:19:18.638Z,0.50
2018-06-21T19:21:47.160Z,0.70
2018-06-21T19:24:15.684Z,0.63
2018-06-21T19:26:44.061Z,1.00
2018-06-21T19:29:12.707Z,0.87
2018-06-21T19:31:41.440Z,0.70
2018-06-21T19:34:10.771Z,1.07
2018-06-21T19:36:39.340Z,0.80
2018-06-21T19:39:09.577Z,0.83
2018-06-21T19:41:38.747Z,0.47
2018-06-21T19:44:07.604Z,0.70
2018-06-21T19:46:36.330Z,0.83
2018-06-21T19:49:04.752Z,0.50
2018-06-21T19:51:33.983Z,0.63
2018-06-21T19:54:02.884Z,0.63
2018-06-21T19:56:31.558Z,0.73
2018-06-21T19:58:59.999Z,0.50
2018-06-21T20:01:28.624Z,0.67
2018-06-21T20:03:57.106Z,0.50
2018-06-21T20:06:25.443Z,1.10
2018-06-21T20:08:53.881Z,1.57
2018-06-21T20:11:27.583Z,1.00
2018-06-21T20:13:55.936Z,0.90
2018-06-21T20:16:24.567Z,0.70
2018-06-21T20:18:52.942Z,0.70
2018-06-21T20:21:21.469Z,1.00
2018-06-21T20:23:50.963Z,0.70
2018-06-21T20:26:20.045Z,0.93
2018-06-21T20:28:48.463Z,0.80
2018-06-21T20:31:17.715Z,0.53
2018-06-21T20:33:47.227Z,0.90
2018-06-21T20:36:16.148Z,0.67
2018-06-21T20:38:44.674Z,0.30
2018-06-21T20:41:13.316Z,0.63
2018-06-21T20:43:41.804Z,0.80
2018-06-21T20:46:10.773Z,0.47
2018-06-21T20:48:39.295Z,0.50
2018-06-21T20:51:07.827Z,0.47
2018-06-21T20:53:36.251Z,0.43
2018-06-21T20:56:04.680Z,0.50
2018-06-21T20:58:33.050Z,0.40
2018-06-21T21:01:01.594Z,0.37
2018-06-21T21:03:30.031Z,0.70
2018-06-21T21:05:58.529Z,0.63
2018-06-21T21:08:27.099Z,0.60
2018-06-21T21:10:55.429Z,0.30
2018-06-21T21:13:23.856Z,0.70
2018-06-21T21:15:52.264Z,0.50
2018-06-21T21:18:20.744Z,0.60
2018-06-21T21:20:49.123Z,0.50
2018-06-21T21:23:17.489Z,0.50
2018-06-21T21:25:45.919Z,0.40
2018-06-21T21:28:14.293Z,0.60
2018-06-21T21:30:42.669Z,0.90
2018-06-21T21:33:11.431Z,0.57
2018-06-21T21:35:39.786Z,0.67
2018-06-21T21:38:08.182Z,0.33
2018-06-21T21:40:36.529Z,0.80
2018-06-21T21:43:04.955Z,0.40
2018-06-21T21:45:33.267Z,0.43
2018-06-21T21:48:01.568Z,0.80
2018-06-21T21:50:29.952Z,0.40
2018-06-21T21:52:58.265Z,0.50
2018-06-21T21:55:26.540Z,0.60
2018-06-21T21:57:54.837Z,0.70
2018-06-21T22:00:59.194Z,0.40
2018-06-21T22:03:27.502Z,0.30
2018-06-21T22:05:55.784Z,0.90
2018-06-21T22:08:24.155Z,0.57
2018-06-21T22:10:52.634Z,0.40
2018-06-21T22:13:21.227Z,0.47
2018-06-21T22:15:49.638Z,0.40
2018-06-21T22:18:17.977Z,0.50
2018-06-21T22:20:46.407Z,0.50
2018-06-21T22:23:14.914Z,0.40
2018-06-21T22:25:43.368Z,0.50
2018-06-21T22:28:12.041Z,0.40
2018-06-21T22:30:40.440Z,0.47
2018-06-21T22:33:08.781Z,0.50
2018-06-21T22:35:37.182Z,0.83
2018-06-21T22:38:05.616Z,0.60
2018-06-21T22:40:34.039Z,0.50
2018-06-21T22:43:02.401Z,0.67
2018-06-21T22:45:30.765Z,0.47
2018-06-21T22:47:59.078Z,0.47
2018-06-21T22:50:27.583Z,0.40
2018-06-21T22:52:55.967Z,0.30
2018-06-21T22:55:24.298Z,0.53
2018-06-21T22:57:52.672Z,0.87
2018-06-21T23:00:21.071Z,0.43
2018-06-21T23:02:49.429Z,0.43
2018-06-21T23:05:17.940Z,0.80
2018-06-21T23:07:46.223Z,0.40
2018-06-21T23:10:14.898Z,0.50
2018-06-21T23:12:43.565Z,0.40
2018-06-21T23:15:12.083Z,0.50
2018-06-21T23:17:40.421Z,0.70
2018-06-21T23:20:08.840Z,0.40
2018-06-21T23:22:37.192Z,0.50
2018-06-21T23:25:05.605Z,0.93
2018-06-21T23:27:33.963Z,0.50
2018-06-21T23:30:02.323Z,0.60
2018-06-21T23:32:30.756Z,0.60
2018-06-21T23:34:59.141Z,0.50
2018-06-21T23:37:27.434Z,0.40
2018-06-21T23:39:55.815Z,0.50
2018-06-21T23:42:24.139Z,0.83
2018-06-21T23:44:52.477Z,0.60
2018-06-21T23:47:20.919Z,0.30
2018-06-21T23:49:49.387Z,0.50
2018-06-21T23:52:17.824Z,0.73
2018-06-21T23:54:46.475Z,0.37
2018-06-21T23:57:15.981Z,0.50
2018-06-21T23:59:44.311Z,0.37
